sensor_id;sensor_type;location;lat;lon;timestamp;P1;durP1;ratioP1;P2;durP2;ratioP2
54263;SDS011;40178;53.042;6.406;2023-11-21T00:00:04;18.20;;;7.45;;
54263;SDS011;40178;53.042;6.406;2023-11-21T00:02:35;21.08;;;6.65;;
54263;SDS011;40178;53.042;6.406;2023-11-21T00:05:03;19.00;;;6.30;;
54263;SDS011;40178;53.042;6.406;2023-11-21T00:07:29;20.27;;;7.47;;
54263;SDS011;40178;53.042;6.406;2023-11-21T00:09:54;20.98;;;6.82;;
54263;SDS011;40178;53.042;6.406;2023-11-21T00:12:21;19.10;;;7.32;;
54263;SDS011;40178;53.042;6.406;2023-11-21T00:14:46;23.55;;;7.78;;
54263;SDS011;40178;53.042;6.406;2023-11-21T00:17:12;23.00;;;7.47;;
54263;SDS011;40178;53.042;6.406;2023-11-21T00:19:38;25.17;;;8.27;;
54263;SDS011;40178;53.042;6.406;2023-11-21T00:22:03;20.05;;;7.13;;
54263;SDS011;40178;53.042;6.406;2023-11-21T00:24:29;17.70;;;6.40;;
54263;SDS011;40178;53.042;6.406;2023-11-21T00:26:54;25.45;;;7.43;;
54263;SDS011;40178;53.042;6.406;2023-11-21T00:29:20;18.77;;;7.22;;
54263;SDS011;40178;53.042;6.406;2023-11-21T00:31:46;24.17;;;7.50;;
54263;SDS011;40178;53.042;6.406;2023-11-21T00:34:11;17.75;;;7.32;;
54263;SDS011;40178;53.042;6.406;2023-11-21T00:36:37;21.42;;;7.50;;
54263;SDS011;40178;53.042;6.406;2023-11-21T00:39:03;22.13;;;7.85;;
54263;SDS011;40178;53.042;6.406;2023-11-21T00:41:30;22.17;;;7.93;;
54263;SDS011;40178;53.042;6.406;2023-11-21T00:43:57;27.25;;;7.90;;
54263;SDS011;40178;53.042;6.406;2023-11-21T00:46:24;25.88;;;8.07;;
54263;SDS011;40178;53.042;6.406;2023-11-21T00:48:52;24.85;;;8.05;;
54263;SDS011;40178;53.042;6.406;2023-11-21T00:51:19;21.02;;;7.80;;
54263;SDS011;40178;53.042;6.406;2023-11-21T00:53:45;23.88;;;8.15;;
54263;SDS011;40178;53.042;6.406;2023-11-21T00:56:11;25.75;;;9.10;;
54263;SDS011;40178;53.042;6.406;2023-11-21T00:58:38;23.80;;;8.35;;
54263;SDS011;40178;53.042;6.406;2023-11-21T01:01:04;21.60;;;7.68;;
54263;SDS011;40178;53.042;6.406;2023-11-21T01:03:30;25.80;;;7.88;;
54263;SDS011;40178;53.042;6.406;2023-11-21T01:05:55;24.85;;;9.25;;
54263;SDS011;40178;53.042;6.406;2023-11-21T01:08:21;33.40;;;9.52;;
54263;SDS011;40178;53.042;6.406;2023-11-21T01:10:49;26.25;;;8.95;;
54263;SDS011;40178;53.042;6.406;2023-11-21T01:13:14;26.33;;;8.55;;
54263;SDS011;40178;53.042;6.406;2023-11-21T01:15:40;30.30;;;9.30;;
54263;SDS011;40178;53.042;6.406;2023-11-21T01:18:06;31.73;;;8.57;;
54263;SDS011;40178;53.042;6.406;2023-11-21T01:20:33;27.95;;;9.38;;
54263;SDS011;40178;53.042;6.406;2023-11-21T01:22:59;27.70;;;8.82;;
54263;SDS011;40178;53.042;6.406;2023-11-21T01:25:25;27.25;;;9.23;;
54263;SDS011;40178;53.042;6.406;2023-11-21T01:27:51;29.33;;;9.18;;
54263;SDS011;40178;53.042;6.406;2023-11-21T01:30:17;30.15;;;9.65;;
54263;SDS011;40178;53.042;6.406;2023-11-21T01:32:43;21.33;;;8.10;;
54263;SDS011;40178;53.042;6.406;2023-11-21T01:35:08;28.60;;;9.23;;
54263;SDS011;40178;53.042;6.406;2023-11-21T01:37:35;32.97;;;9.63;;
54263;SDS011;40178;53.042;6.406;2023-11-21T01:40:01;35.03;;;10.63;;
54263;SDS011;40178;53.042;6.406;2023-11-21T01:42:27;37.35;;;10.30;;
54263;SDS011;40178;53.042;6.406;2023-11-21T01:44:54;29.02;;;10.75;;
54263;SDS011;40178;53.042;6.406;2023-11-21T01:47:20;29.77;;;10.20;;
54263;SDS011;40178;53.042;6.406;2023-11-21T01:49:46;32.58;;;10.25;;
54263;SDS011;40178;53.042;6.406;2023-11-21T01:52:12;36.10;;;10.02;;
54263;SDS011;40178;53.042;6.406;2023-11-21T01:54:38;31.50;;;10.95;;
54263;SDS011;40178;53.042;6.406;2023-11-21T01:57:04;31.52;;;10.43;;
54263;SDS011;40178;53.042;6.406;2023-11-21T01:59:35;32.63;;;10.38;;
54263;SDS011;40178;53.042;6.406;2023-11-21T02:02:02;34.47;;;10.98;;
54263;SDS011;40178;53.042;6.406;2023-11-21T02:04:30;28.63;;;10.35;;
54263;SDS011;40178;53.042;6.406;2023-11-21T02:06:59;32.92;;;10.45;;
54263;SDS011;40178;53.042;6.406;2023-11-21T02:09:28;28.85;;;9.57;;
54263;SDS011;40178;53.042;6.406;2023-11-21T02:11:58;33.50;;;10.50;;
54263;SDS011;40178;53.042;6.406;2023-11-21T02:14:24;32.67;;;10.85;;
54263;SDS011;40178;53.042;6.406;2023-11-21T02:16:51;33.63;;;10.52;;
54263;SDS011;40178;53.042;6.406;2023-11-21T02:19:17;39.70;;;10.35;;
54263;SDS011;40178;53.042;6.406;2023-11-21T02:21:45;35.83;;;11.05;;
54263;SDS011;40178;53.042;6.406;2023-11-21T02:24:13;37.33;;;10.23;;
54263;SDS011;40178;53.042;6.406;2023-11-21T02:26:38;34.15;;;10.32;;
54263;SDS011;40178;53.042;6.406;2023-11-21T02:29:04;31.10;;;11.45;;
54263;SDS011;40178;53.042;6.406;2023-11-21T02:31:30;44.67;;;11.73;;
54263;SDS011;40178;53.042;6.406;2023-11-21T02:33:57;32.25;;;9.70;;
54263;SDS011;40178;53.042;6.406;2023-11-21T02:36:23;30.15;;;10.27;;
54263;SDS011;40178;53.042;6.406;2023-11-21T02:38:49;30.88;;;9.60;;
54263;SDS011;40178;53.042;6.406;2023-11-21T02:41:15;34.03;;;11.60;;
54263;SDS011;40178;53.042;6.406;2023-11-21T02:43:40;36.20;;;10.05;;
54263;SDS011;40178;53.042;6.406;2023-11-21T02:46:06;27.58;;;9.55;;
54263;SDS011;40178;53.042;6.406;2023-11-21T02:48:33;29.27;;;10.27;;
54263;SDS011;40178;53.042;6.406;2023-11-21T02:50:59;29.08;;;10.27;;
54263;SDS011;40178;53.042;6.406;2023-11-21T02:53:24;26.67;;;9.25;;
54263;SDS011;40178;53.042;6.406;2023-11-21T02:55:51;22.45;;;8.43;;
54263;SDS011;40178;53.042;6.406;2023-11-21T02:58:17;29.40;;;9.52;;
54263;SDS011;40178;53.042;6.406;2023-11-21T03:00:42;25.17;;;8.75;;
54263;SDS011;40178;53.042;6.406;2023-11-21T03:03:08;32.35;;;9.52;;
54263;SDS011;40178;53.042;6.406;2023-11-21T03:05:34;34.25;;;8.27;;
54263;SDS011;40178;53.042;6.406;2023-11-21T03:08:00;29.48;;;8.98;;
54263;SDS011;40178;53.042;6.406;2023-11-21T03:10:26;29.02;;;9.43;;
54263;SDS011;40178;53.042;6.406;2023-11-21T03:12:52;22.52;;;9.02;;
54263;SDS011;40178;53.042;6.406;2023-11-21T03:15:18;25.73;;;8.55;;
54263;SDS011;40178;53.042;6.406;2023-11-21T03:17:43;25.13;;;9.02;;
54263;SDS011;40178;53.042;6.406;2023-11-21T03:20:09;26.30;;;9.05;;
54263;SDS011;40178;53.042;6.406;2023-11-21T03:22:36;24.33;;;8.90;;
54263;SDS011;40178;53.042;6.406;2023-11-21T03:25:03;22.40;;;8.90;;
54263;SDS011;40178;53.042;6.406;2023-11-21T03:27:30;21.88;;;8.20;;
54263;SDS011;40178;53.042;6.406;2023-11-21T03:29:55;23.17;;;9.73;;
54263;SDS011;40178;53.042;6.406;2023-11-21T03:32:21;40.97;;;9.63;;
54263;SDS011;40178;53.042;6.406;2023-11-21T03:34:56;27.30;;;9.52;;
54263;SDS011;40178;53.042;6.406;2023-11-21T03:37:23;23.13;;;8.60;;
54263;SDS011;40178;53.042;6.406;2023-11-21T03:39:50;31.10;;;11.38;;
54263;SDS011;40178;53.042;6.406;2023-11-21T03:42:16;27.35;;;9.00;;
54263;SDS011;40178;53.042;6.406;2023-11-21T03:44:42;26.88;;;9.98;;
54263;SDS011;40178;53.042;6.406;2023-11-21T03:47:07;24.10;;;9.20;;
54263;SDS011;40178;53.042;6.406;2023-11-21T03:49:33;29.90;;;10.40;;
54263;SDS011;40178;53.042;6.406;2023-11-21T03:51:58;30.10;;;10.50;;
54263;SDS011;40178;53.042;6.406;2023-11-21T03:54:24;44.13;;;10.65;;
54263;SDS011;40178;53.042;6.406;2023-11-21T03:56:50;34.92;;;11.73;;
54263;SDS011;40178;53.042;6.406;2023-11-21T03:59:15;32.67;;;12.50;;
54263;SDS011;40178;53.042;6.406;2023-11-21T04:01:41;33.28;;;11.85;;
54263;SDS011;40178;53.042;6.406;2023-11-21T04:04:06;42.45;;;14.38;;
54263;SDS011;40178;53.042;6.406;2023-11-21T04:06:32;47.97;;;13.45;;
54263;SDS011;40178;53.042;6.406;2023-11-21T04:08:58;43.17;;;14.70;;
54263;SDS011;40178;53.042;6.406;2023-11-21T04:11:24;56.83;;;14.60;;
54263;SDS011;40178;53.042;6.406;2023-11-21T04:13:49;46.78;;;15.52;;
54263;SDS011;40178;53.042;6.406;2023-11-21T04:16:15;39.75;;;14.05;;
54263;SDS011;40178;53.042;6.406;2023-11-21T04:18:41;49.05;;;14.32;;
54263;SDS011;40178;53.042;6.406;2023-11-21T04:21:07;42.25;;;15.60;;
54263;SDS011;40178;53.042;6.406;2023-11-21T04:23:33;47.97;;;15.13;;
54263;SDS011;40178;53.042;6.406;2023-11-21T04:26:00;48.85;;;14.73;;
54263;SDS011;40178;53.042;6.406;2023-11-21T04:28:27;45.97;;;14.38;;
54263;SDS011;40178;53.042;6.406;2023-11-21T04:30:52;48.70;;;15.02;;
54263;SDS011;40178;53.042;6.406;2023-11-21T04:33:18;44.92;;;14.88;;
54263;SDS011;40178;53.042;6.406;2023-11-21T04:35:44;49.40;;;15.55;;
54263;SDS011;40178;53.042;6.406;2023-11-21T04:38:09;54.00;;;15.35;;
54263;SDS011;40178;53.042;6.406;2023-11-21T04:40:35;47.55;;;14.80;;
54263;SDS011;40178;53.042;6.406;2023-11-21T04:43:01;44.03;;;15.32;;
54263;SDS011;40178;53.042;6.406;2023-11-21T04:45:27;49.65;;;15.27;;
54263;SDS011;40178;53.042;6.406;2023-11-21T04:47:52;48.30;;;14.32;;
54263;SDS011;40178;53.042;6.406;2023-11-21T04:50:18;44.03;;;14.68;;
54263;SDS011;40178;53.042;6.406;2023-11-21T04:52:44;40.40;;;14.00;;
54263;SDS011;40178;53.042;6.406;2023-11-21T04:55:09;45.00;;;14.18;;
54263;SDS011;40178;53.042;6.406;2023-11-21T04:57:38;44.55;;;14.10;;
54263;SDS011;40178;53.042;6.406;2023-11-21T05:00:08;46.08;;;14.23;;
54263;SDS011;40178;53.042;6.406;2023-11-21T05:02:34;45.97;;;14.60;;
54263;SDS011;40178;53.042;6.406;2023-11-21T05:05:00;43.55;;;14.48;;
54263;SDS011;40178;53.042;6.406;2023-11-21T05:07:27;51.45;;;16.02;;
54263;SDS011;40178;53.042;6.406;2023-11-21T05:09:55;40.75;;;13.80;;
54263;SDS011;40178;53.042;6.406;2023-11-21T05:12:24;42.72;;;13.30;;
54263;SDS011;40178;53.042;6.406;2023-11-21T05:14:52;36.33;;;13.90;;
54263;SDS011;40178;53.042;6.406;2023-11-21T05:17:18;43.15;;;14.45;;
54263;SDS011;40178;53.042;6.406;2023-11-21T05:19:43;61.72;;;16.40;;
54263;SDS011;40178;53.042;6.406;2023-11-21T05:22:10;60.97;;;16.10;;
54263;SDS011;40178;53.042;6.406;2023-11-21T05:24:37;58.10;;;15.63;;
54263;SDS011;40178;53.042;6.406;2023-11-21T05:27:04;70.30;;;17.25;;
54263;SDS011;40178;53.042;6.406;2023-11-21T05:29:29;58.28;;;17.45;;
54263;SDS011;40178;53.042;6.406;2023-11-21T05:31:55;46.25;;;15.35;;
54263;SDS011;40178;53.042;6.406;2023-11-21T05:34:21;61.78;;;17.88;;
54263;SDS011;40178;53.042;6.406;2023-11-21T05:36:49;73.38;;;18.42;;
54263;SDS011;40178;53.042;6.406;2023-11-21T05:39:15;92.80;;;20.98;;
54263;SDS011;40178;53.042;6.406;2023-11-21T05:41:42;66.60;;;18.98;;
54263;SDS011;40178;53.042;6.406;2023-11-21T05:44:08;83.75;;;19.98;;
54263;SDS011;40178;53.042;6.406;2023-11-21T05:46:34;75.40;;;19.40;;
54263;SDS011;40178;53.042;6.406;2023-11-21T05:48:59;74.10;;;19.77;;
54263;SDS011;40178;53.042;6.406;2023-11-21T05:51:25;72.07;;;18.58;;
54263;SDS011;40178;53.042;6.406;2023-11-21T05:53:51;83.93;;;19.65;;
54263;SDS011;40178;53.042;6.406;2023-11-21T05:56:16;58.15;;;16.27;;
54263;SDS011;40178;53.042;6.406;2023-11-21T05:58:43;52.67;;;16.23;;
54263;SDS011;40178;53.042;6.406;2023-11-21T06:01:08;55.50;;;15.63;;
54263;SDS011;40178;53.042;6.406;2023-11-21T06:03:37;43.60;;;14.73;;
54263;SDS011;40178;53.042;6.406;2023-11-21T06:06:03;41.92;;;13.85;;
54263;SDS011;40178;53.042;6.406;2023-11-21T06:08:29;41.83;;;12.40;;
54263;SDS011;40178;53.042;6.406;2023-11-21T06:10:55;38.05;;;12.65;;
54263;SDS011;40178;53.042;6.406;2023-11-21T06:13:21;40.80;;;12.70;;
54263;SDS011;40178;53.042;6.406;2023-11-21T06:15:49;38.85;;;12.60;;
54263;SDS011;40178;53.042;6.406;2023-11-21T06:18:15;28.73;;;11.52;;
54263;SDS011;40178;53.042;6.406;2023-11-21T06:20:44;27.85;;;11.02;;
54263;SDS011;40178;53.042;6.406;2023-11-21T06:23:13;30.52;;;11.05;;
54263;SDS011;40178;53.042;6.406;2023-11-21T06:25:39;33.50;;;10.38;;
54263;SDS011;40178;53.042;6.406;2023-11-21T06:28:05;24.20;;;11.63;;
54263;SDS011;40178;53.042;6.406;2023-11-21T06:30:31;33.22;;;10.95;;
54263;SDS011;40178;53.042;6.406;2023-11-21T06:32:57;26.13;;;10.63;;
54263;SDS011;40178;53.042;6.406;2023-11-21T06:35:22;29.60;;;9.88;;
54263;SDS011;40178;53.042;6.406;2023-11-21T06:37:48;24.77;;;10.18;;
54263;SDS011;40178;53.042;6.406;2023-11-21T06:40:14;24.45;;;9.65;;
54263;SDS011;40178;53.042;6.406;2023-11-21T06:42:40;23.50;;;10.07;;
54263;SDS011;40178;53.042;6.406;2023-11-21T06:45:06;26.02;;;11.18;;
54263;SDS011;40178;53.042;6.406;2023-11-21T06:47:32;25.13;;;10.23;;
54263;SDS011;40178;53.042;6.406;2023-11-21T06:49:58;24.58;;;10.63;;
54263;SDS011;40178;53.042;6.406;2023-11-21T06:52:25;22.38;;;9.60;;
54263;SDS011;40178;53.042;6.406;2023-11-21T06:54:51;19.23;;;8.50;;
54263;SDS011;40178;53.042;6.406;2023-11-21T06:57:16;24.63;;;9.70;;
54263;SDS011;40178;53.042;6.406;2023-11-21T06:59:42;28.25;;;10.60;;
54263;SDS011;40178;53.042;6.406;2023-11-21T07:02:08;26.58;;;10.13;;
54263;SDS011;40178;53.042;6.406;2023-11-21T07:04:34;31.08;;;11.82;;
54263;SDS011;40178;53.042;6.406;2023-11-21T07:07:03;33.80;;;10.40;;
54263;SDS011;40178;53.042;6.406;2023-11-21T07:09:29;27.00;;;10.98;;
54263;SDS011;40178;53.042;6.406;2023-11-21T07:11:56;27.42;;;9.55;;
54263;SDS011;40178;53.042;6.406;2023-11-21T07:14:22;28.23;;;10.10;;
54263;SDS011;40178;53.042;6.406;2023-11-21T07:16:47;26.73;;;10.30;;
54263;SDS011;40178;53.042;6.406;2023-11-21T07:19:13;26.70;;;9.93;;
54263;SDS011;40178;53.042;6.406;2023-11-21T07:21:39;27.58;;;10.68;;
54263;SDS011;40178;53.042;6.406;2023-11-21T07:24:05;28.30;;;10.48;;
54263;SDS011;40178;53.042;6.406;2023-11-21T07:26:32;30.17;;;10.65;;
54263;SDS011;40178;53.042;6.406;2023-11-21T07:28:58;29.85;;;10.93;;
54263;SDS011;40178;53.042;6.406;2023-11-21T07:31:25;28.13;;;10.02;;
54263;SDS011;40178;53.042;6.406;2023-11-21T07:33:51;31.08;;;9.68;;
54263;SDS011;40178;53.042;6.406;2023-11-21T07:36:17;25.25;;;9.05;;
54263;SDS011;40178;53.042;6.406;2023-11-21T07:38:44;27.00;;;8.75;;
54263;SDS011;40178;53.042;6.406;2023-11-21T07:41:10;27.20;;;8.27;;
54263;SDS011;40178;53.042;6.406;2023-11-21T07:43:36;25.92;;;10.07;;
54263;SDS011;40178;53.042;6.406;2023-11-21T07:46:02;23.17;;;8.75;;
54263;SDS011;40178;53.042;6.406;2023-11-21T07:48:31;27.45;;;9.23;;
54263;SDS011;40178;53.042;6.406;2023-11-21T07:50:58;24.83;;;9.85;;
54263;SDS011;40178;53.042;6.406;2023-11-21T07:53:24;23.92;;;9.50;;
54263;SDS011;40178;53.042;6.406;2023-11-21T07:55:56;22.50;;;8.80;;
54263;SDS011;40178;53.042;6.406;2023-11-21T07:58:22;23.98;;;8.10;;
54263;SDS011;40178;53.042;6.406;2023-11-21T08:00:49;24.40;;;8.70;;
54263;SDS011;40178;53.042;6.406;2023-11-21T08:03:15;23.55;;;8.63;;
54263;SDS011;40178;53.042;6.406;2023-11-21T08:05:41;21.25;;;8.88;;
54263;SDS011;40178;53.042;6.406;2023-11-21T08:08:07;24.80;;;9.13;;
54263;SDS011;40178;53.042;6.406;2023-11-21T08:10:33;20.98;;;8.38;;
54263;SDS011;40178;53.042;6.406;2023-11-21T08:13:00;26.02;;;9.27;;
54263;SDS011;40178;53.042;6.406;2023-11-21T08:15:26;18.73;;;7.47;;
54263;SDS011;40178;53.042;6.406;2023-11-21T08:17:52;16.88;;;7.63;;
54263;SDS011;40178;53.042;6.406;2023-11-21T08:20:18;18.08;;;7.82;;
54263;SDS011;40178;53.042;6.406;2023-11-21T08:22:44;18.25;;;7.03;;
54263;SDS011;40178;53.042;6.406;2023-11-21T08:25:10;18.42;;;7.55;;
54263;SDS011;40178;53.042;6.406;2023-11-21T08:27:35;16.92;;;7.07;;
54263;SDS011;40178;53.042;6.406;2023-11-21T08:30:04;21.65;;;8.95;;
54263;SDS011;40178;53.042;6.406;2023-11-21T08:32:32;33.35;;;10.65;;
54263;SDS011;40178;53.042;6.406;2023-11-21T08:35:00;22.92;;;10.82;;
54263;SDS011;40178;53.042;6.406;2023-11-21T08:37:26;28.13;;;11.98;;
54263;SDS011;40178;53.042;6.406;2023-11-21T08:39:52;24.88;;;10.52;;
54263;SDS011;40178;53.042;6.406;2023-11-21T08:42:18;24.88;;;10.45;;
54263;SDS011;40178;53.042;6.406;2023-11-21T08:44:44;26.83;;;11.35;;
54263;SDS011;40178;53.042;6.406;2023-11-21T08:47:10;24.50;;;9.80;;
54263;SDS011;40178;53.042;6.406;2023-11-21T08:49:36;25.73;;;10.95;;
54263;SDS011;40178;53.042;6.406;2023-11-21T08:52:03;24.60;;;10.93;;
54263;SDS011;40178;53.042;6.406;2023-11-21T08:54:30;24.90;;;11.05;;
54263;SDS011;40178;53.042;6.406;2023-11-21T08:56:56;21.10;;;10.35;;
54263;SDS011;40178;53.042;6.406;2023-11-21T08:59:24;25.17;;;10.85;;
54263;SDS011;40178;53.042;6.406;2023-11-21T09:01:50;30.08;;;11.75;;
54263;SDS011;40178;53.042;6.406;2023-11-21T09:04:16;27.88;;;12.63;;
54263;SDS011;40178;53.042;6.406;2023-11-21T09:06:41;23.20;;;10.73;;
54263;SDS011;40178;53.042;6.406;2023-11-21T09:09:07;26.05;;;12.48;;
54263;SDS011;40178;53.042;6.406;2023-11-21T09:11:35;26.02;;;12.00;;
54263;SDS011;40178;53.042;6.406;2023-11-21T09:14:01;26.05;;;11.82;;
54263;SDS011;40178;53.042;6.406;2023-11-21T09:16:28;25.50;;;12.60;;
54263;SDS011;40178;53.042;6.406;2023-11-21T09:18:54;26.98;;;12.43;;
54263;SDS011;40178;53.042;6.406;2023-11-21T09:21:20;26.75;;;12.40;;
54263;SDS011;40178;53.042;6.406;2023-11-21T09:23:45;24.52;;;11.52;;
54263;SDS011;40178;53.042;6.406;2023-11-21T09:26:11;26.80;;;12.43;;
54263;SDS011;40178;53.042;6.406;2023-11-21T09:28:37;25.17;;;12.00;;
54263;SDS011;40178;53.042;6.406;2023-11-21T09:31:06;25.42;;;11.75;;
54263;SDS011;40178;53.042;6.406;2023-11-21T09:33:34;26.45;;;12.27;;
54263;SDS011;40178;53.042;6.406;2023-11-21T09:36:00;22.63;;;11.07;;
54263;SDS011;40178;53.042;6.406;2023-11-21T09:38:26;22.05;;;11.80;;
54263;SDS011;40178;53.042;6.406;2023-11-21T09:40:54;21.45;;;10.65;;
54263;SDS011;40178;53.042;6.406;2023-11-21T09:43:20;19.13;;;9.73;;
54263;SDS011;40178;53.042;6.406;2023-11-21T09:45:47;18.38;;;9.30;;
54263;SDS011;40178;53.042;6.406;2023-11-21T09:48:19;17.40;;;9.43;;
54263;SDS011;40178;53.042;6.406;2023-11-21T09:50:46;19.50;;;9.27;;
54263;SDS011;40178;53.042;6.406;2023-11-21T09:55:49;20.02;;;10.70;;
54263;SDS011;40178;53.042;6.406;2023-11-21T09:58:17;16.95;;;9.18;;
54263;SDS011;40178;53.042;6.406;2023-11-21T10:00:45;16.77;;;9.23;;
54263;SDS011;40178;53.042;6.406;2023-11-21T10:03:11;17.52;;;8.77;;
54263;SDS011;40178;53.042;6.406;2023-11-21T10:05:38;17.67;;;9.15;;
54263;SDS011;40178;53.042;6.406;2023-11-21T10:08:08;18.20;;;9.68;;
54263;SDS011;40178;53.042;6.406;2023-11-21T10:10:35;16.85;;;9.95;;
54263;SDS011;40178;53.042;6.406;2023-11-21T10:13:03;17.90;;;8.57;;
54263;SDS011;40178;53.042;6.406;2023-11-21T10:15:35;17.05;;;9.50;;
54263;SDS011;40178;53.042;6.406;2023-11-21T10:18:04;17.40;;;8.73;;
54263;SDS011;40178;53.042;6.406;2023-11-21T10:20:32;17.50;;;9.15;;
54263;SDS011;40178;53.042;6.406;2023-11-21T10:22:59;16.65;;;8.80;;
54263;SDS011;40178;53.042;6.406;2023-11-21T10:25:27;17.08;;;8.80;;
54263;SDS011;40178;53.042;6.406;2023-11-21T10:27:57;16.23;;;9.05;;
54263;SDS011;40178;53.042;6.406;2023-11-21T10:30:35;16.48;;;8.70;;
54263;SDS011;40178;53.042;6.406;2023-11-21T10:33:03;14.57;;;8.13;;
54263;SDS011;40178;53.042;6.406;2023-11-21T10:35:45;15.40;;;8.77;;
54263;SDS011;40178;53.042;6.406;2023-11-21T10:38:15;14.77;;;7.38;;
54263;SDS011;40178;53.042;6.406;2023-11-21T10:40:47;15.63;;;7.75;;
54263;SDS011;40178;53.042;6.406;2023-11-21T10:43:14;13.73;;;7.80;;
54263;SDS011;40178;53.042;6.406;2023-11-21T10:45:40;13.90;;;8.05;;
54263;SDS011;40178;53.042;6.406;2023-11-21T10:48:07;13.50;;;7.45;;
54263;SDS011;40178;53.042;6.406;2023-11-21T10:50:35;12.38;;;7.05;;
54263;SDS011;40178;53.042;6.406;2023-11-21T10:53:02;11.68;;;6.13;;
54263;SDS011;40178;53.042;6.406;2023-11-21T10:55:29;11.32;;;6.32;;
54263;SDS011;40178;53.042;6.406;2023-11-21T10:57:57;12.93;;;7.03;;
54263;SDS011;40178;53.042;6.406;2023-11-21T11:00:24;12.48;;;5.97;;
54263;SDS011;40178;53.042;6.406;2023-11-21T11:02:52;10.77;;;5.90;;
54263;SDS011;40178;53.042;6.406;2023-11-21T11:05:22;11.10;;;5.63;;
54263;SDS011;40178;53.042;6.406;2023-11-21T11:08:31;11.32;;;6.43;;
54263;SDS011;40178;53.042;6.406;2023-11-21T11:10:43;9.13;;;5.30;;
54263;SDS011;40178;53.042;6.406;2023-11-21T11:13:12;10.70;;;5.28;;
54263;SDS011;40178;53.042;6.406;2023-11-21T11:15:40;10.48;;;5.60;;
54263;SDS011;40178;53.042;6.406;2023-11-21T11:18:06;10.52;;;5.30;;
54263;SDS011;40178;53.042;6.406;2023-11-21T11:20:34;9.18;;;4.90;;
54263;SDS011;40178;53.042;6.406;2023-11-21T11:26:07;12.35;;;6.10;;
54263;SDS011;40178;53.042;6.406;2023-11-21T11:36:41;9.70;;;4.50;;
54263;SDS011;40178;53.042;6.406;2023-11-21T11:42:12;10.07;;;4.97;;
54263;SDS011;40178;53.042;6.406;2023-11-21T11:50:05;10.52;;;5.32;;
54263;SDS011;40178;53.042;6.406;2023-11-21T11:52:52;9.68;;;4.40;;
54263;SDS011;40178;53.042;6.406;2023-11-21T11:55:20;9.30;;;5.10;;
54263;SDS011;40178;53.042;6.406;2023-11-21T11:57:47;8.98;;;4.90;;
54263;SDS011;40178;53.042;6.406;2023-11-21T12:00:17;10.50;;;4.78;;
54263;SDS011;40178;53.042;6.406;2023-11-21T12:02:55;8.27;;;4.72;;
54263;SDS011;40178;53.042;6.406;2023-11-21T12:05:23;9.13;;;4.50;;
54263;SDS011;40178;53.042;6.406;2023-11-21T12:07:56;8.82;;;4.78;;
54263;SDS011;40178;53.042;6.406;2023-11-21T12:10:32;8.88;;;4.38;;
54263;SDS011;40178;53.042;6.406;2023-11-21T12:13:00;9.50;;;4.75;;
54263;SDS011;40178;53.042;6.406;2023-11-21T12:15:27;8.30;;;4.25;;
54263;SDS011;40178;53.042;6.406;2023-11-21T12:17:57;8.18;;;4.43;;
54263;SDS011;40178;53.042;6.406;2023-11-21T12:20:24;8.63;;;4.13;;
54263;SDS011;40178;53.042;6.406;2023-11-21T12:22:54;9.10;;;4.47;;
54263;SDS011;40178;53.042;6.406;2023-11-21T12:25:22;7.97;;;4.00;;
54263;SDS011;40178;53.042;6.406;2023-11-21T12:27:57;8.63;;;3.83;;
54263;SDS011;40178;53.042;6.406;2023-11-21T12:30:24;9.68;;;4.15;;
54263;SDS011;40178;53.042;6.406;2023-11-21T12:32:56;9.95;;;4.53;;
54263;SDS011;40178;53.042;6.406;2023-11-21T12:35:26;8.35;;;4.05;;
54263;SDS011;40178;53.042;6.406;2023-11-21T12:37:53;7.72;;;3.95;;
54263;SDS011;40178;53.042;6.406;2023-11-21T12:40:20;9.80;;;4.68;;
54263;SDS011;40178;53.042;6.406;2023-11-21T12:42:48;10.13;;;4.35;;
54263;SDS011;40178;53.042;6.406;2023-11-21T12:45:21;8.23;;;3.92;;
54263;SDS011;40178;53.042;6.406;2023-11-21T12:47:50;9.95;;;4.25;;
54263;SDS011;40178;53.042;6.406;2023-11-21T12:50:28;8.38;;;4.40;;
54263;SDS011;40178;53.042;6.406;2023-11-21T12:55:26;8.00;;;4.07;;
54263;SDS011;40178;53.042;6.406;2023-11-21T12:58:02;9.30;;;4.57;;
54263;SDS011;40178;53.042;6.406;2023-11-21T13:00:36;10.30;;;4.28;;
54263;SDS011;40178;53.042;6.406;2023-11-21T13:03:03;7.93;;;3.63;;
54263;SDS011;40178;53.042;6.406;2023-11-21T13:05:32;8.73;;;4.20;;
54263;SDS011;40178;53.042;6.406;2023-11-21T13:08:03;9.60;;;4.07;;
54263;SDS011;40178;53.042;6.406;2023-11-21T13:10:33;9.10;;;4.22;;
54263;SDS011;40178;53.042;6.406;2023-11-21T13:13:01;6.70;;;3.90;;
54263;SDS011;40178;53.042;6.406;2023-11-21T13:15:30;8.48;;;4.45;;
54263;SDS011;40178;53.042;6.406;2023-11-21T13:17:58;7.88;;;3.60;;
54263;SDS011;40178;53.042;6.406;2023-11-21T13:20:24;6.35;;;3.40;;
54263;SDS011;40178;53.042;6.406;2023-11-21T13:22:51;8.23;;;4.22;;
54263;SDS011;40178;53.042;6.406;2023-11-21T13:25:28;7.28;;;3.65;;
54263;SDS011;40178;53.042;6.406;2023-11-21T13:27:56;7.50;;;4.03;;
54263;SDS011;40178;53.042;6.406;2023-11-21T13:30:23;9.05;;;4.03;;
54263;SDS011;40178;53.042;6.406;2023-11-21T13:32:53;6.65;;;3.70;;
54263;SDS011;40178;53.042;6.406;2023-11-21T13:35:22;7.90;;;4.07;;
54263;SDS011;40178;53.042;6.406;2023-11-21T13:37:56;8.50;;;3.63;;
54263;SDS011;40178;53.042;6.406;2023-11-21T13:40:25;8.70;;;4.55;;
54263;SDS011;40178;53.042;6.406;2023-11-21T13:42:52;9.55;;;4.00;;
54263;SDS011;40178;53.042;6.406;2023-11-21T13:45:24;9.50;;;4.60;;
54263;SDS011;40178;53.042;6.406;2023-11-21T13:47:53;7.95;;;4.07;;
54263;SDS011;40178;53.042;6.406;2023-11-21T13:50:26;9.00;;;4.53;;
54263;SDS011;40178;53.042;6.406;2023-11-21T13:52:58;10.45;;;4.72;;
54263;SDS011;40178;53.042;6.406;2023-11-21T13:55:28;10.85;;;4.18;;
54263;SDS011;40178;53.042;6.406;2023-11-21T13:57:54;7.60;;;4.18;;
54263;SDS011;40178;53.042;6.406;2023-11-21T14:00:20;8.82;;;4.75;;
54263;SDS011;40178;53.042;6.406;2023-11-21T14:03:09;9.20;;;4.53;;
54263;SDS011;40178;53.042;6.406;2023-11-21T14:05:42;10.15;;;4.93;;
54263;SDS011;40178;53.042;6.406;2023-11-21T14:08:09;10.82;;;5.47;;
54263;SDS011;40178;53.042;6.406;2023-11-21T14:10:37;10.52;;;5.28;;
54263;SDS011;40178;53.042;6.406;2023-11-21T14:13:08;9.35;;;4.85;;
54263;SDS011;40178;53.042;6.406;2023-11-21T14:15:38;8.35;;;4.47;;
54263;SDS011;40178;53.042;6.406;2023-11-21T14:18:07;10.73;;;5.90;;
54263;SDS011;40178;53.042;6.406;2023-11-21T14:20:36;10.82;;;5.68;;
54263;SDS011;40178;53.042;6.406;2023-11-21T14:23:04;9.35;;;5.03;;
54263;SDS011;40178;53.042;6.406;2023-11-21T14:25:31;9.88;;;5.38;;
54263;SDS011;40178;53.042;6.406;2023-11-21T14:27:57;7.75;;;4.43;;
54263;SDS011;40178;53.042;6.406;2023-11-21T14:30:23;11.05;;;5.15;;
54263;SDS011;40178;53.042;6.406;2023-11-21T14:32:50;9.13;;;4.70;;
54263;SDS011;40178;53.042;6.406;2023-11-21T14:35:16;9.60;;;5.25;;
54263;SDS011;40178;53.042;6.406;2023-11-21T14:37:42;8.23;;;4.50;;
54263;SDS011;40178;53.042;6.406;2023-11-21T14:40:08;9.90;;;4.15;;
54263;SDS011;40178;53.042;6.406;2023-11-21T14:42:34;8.68;;;4.30;;
54263;SDS011;40178;53.042;6.406;2023-11-21T14:45:04;10.90;;;4.32;;
54263;SDS011;40178;53.042;6.406;2023-11-21T14:47:32;8.70;;;4.20;;
54263;SDS011;40178;53.042;6.406;2023-11-21T14:49:59;10.23;;;5.07;;
54263;SDS011;40178;53.042;6.406;2023-11-21T14:52:48;9.75;;;4.60;;
54263;SDS011;40178;53.042;6.406;2023-11-21T14:55:24;7.82;;;3.78;;